Anchor Point, Alaska
Current Conditions -  °F | °C
As of 6:53 PM on Tuesday 21 Oct 2014 (Local Time) from PAHO Reporting Station
Few Clouds Few Clouds  
Wind Chill: 41°   Ceiling: Unl
Heat Index: 41°   Visibility: 10mi
Dew Point: 33°   Wind: 3mph
Humidity: 73%   Direction: 40°NE
Pressure: 29.23"   Gusts: NA
Location:  59.77°N, 151.82°W
Report Text: PAHO 220253Z 04003KT 10SM FEW120 05/01 A2923 RMK AO2 SLP898 T00500006 56007
Loading
Personal Weather Stations






























Interactive Weather Map New forecast layout! Learn more

10-Day Weather Forecast

Advertisements
Track Severe Weather on mobile